sensor_id;sensor_type;location;lat;lon;timestamp;pressure;altitude;pressure_sealevel;temperature;humidity
36630;BME280;36256;42.154;23.002;2023-02-22T00:01:33;97191.47;;;4.64;82.94
36630;BME280;36256;42.154;23.002;2023-02-22T00:04:16;97222.16;;;4.53;85.76
36630;BME280;36256;42.154;23.002;2023-02-22T00:06:47;97216.81;;;4.36;86.21
36630;BME280;36256;42.154;23.002;2023-02-22T00:09:14;97216.78;;;4.39;86.28
36630;BME280;36256;42.154;23.002;2023-02-22T00:11:47;97216.50;;;4.30;85.79
36630;BME280;36256;42.154;23.002;2023-02-22T00:14:14;97228.81;;;4.29;86.32
36630;BME280;36256;42.154;23.002;2023-02-22T00:16:41;97215.41;;;4.21;86.03
36630;BME280;36256;42.154;23.002;2023-02-22T00:19:07;97217.03;;;4.18;86.33
36630;BME280;36256;42.154;23.002;2023-02-22T00:21:36;97224.78;;;4.00;87.65
36630;BME280;36256;42.154;23.002;2023-02-22T00:24:03;97224.16;;;4.19;87.67
36630;BME280;36256;42.154;23.002;2023-02-22T00:26:50;97215.94;;;4.42;86.33
36630;BME280;36256;42.154;23.002;2023-02-22T00:29:17;97213.78;;;4.57;85.14
36630;BME280;36256;42.154;23.002;2023-02-22T00:31:44;97209.75;;;4.61;84.17
36630;BME280;36256;42.154;23.002;2023-02-22T00:34:12;97215.22;;;4.68;82.90
36630;BME280;36256;42.154;23.002;2023-02-22T00:36:47;97216.75;;;4.43;84.44
36630;BME280;36256;42.154;23.002;2023-02-22T00:39:15;97214.47;;;4.34;85.05
36630;BME280;36256;42.154;23.002;2023-02-22T00:41:42;97213.81;;;4.23;85.38
36630;BME280;36256;42.154;23.002;2023-02-22T00:44:09;97219.59;;;4.02;86.79
36630;BME280;36256;42.154;23.002;2023-02-22T00:46:35;97200.75;;;3.86;87.34
36630;BME280;36256;42.154;23.002;2023-02-22T00:49:02;97218.16;;;3.87;87.55
36630;BME280;36256;42.154;23.002;2023-02-22T00:51:30;97225.41;;;3.74;87.87
36630;BME280;36256;42.154;23.002;2023-02-22T00:53:57;97215.91;;;3.75;90.40
36630;BME280;36256;42.154;23.002;2023-02-22T00:56:23;97209.09;;;3.83;89.70
36630;BME280;36256;42.154;23.002;2023-02-22T00:58:50;97214.47;;;4.01;88.04
36630;BME280;36256;42.154;23.002;2023-02-22T01:01:17;97184.72;;;4.01;86.60
36630;BME280;36256;42.154;23.002;2023-02-22T01:03:44;97196.31;;;4.26;84.95
36630;BME280;36256;42.154;23.002;2023-02-22T01:06:11;97205.28;;;4.07;85.18
36630;BME280;36256;42.154;23.002;2023-02-22T01:08:37;97209.69;;;4.01;87.44
36630;BME280;36256;42.154;23.002;2023-02-22T01:11:09;97208.59;;;3.91;89.85
36630;BME280;36256;42.154;23.002;2023-02-22T01:13:36;97201.50;;;3.87;89.78
36630;BME280;36256;42.154;23.002;2023-02-22T01:16:03;97198.84;;;3.76;91.00
36630;BME280;36256;42.154;23.002;2023-02-22T01:18:36;97196.22;;;3.62;92.41
36630;BME280;36256;42.154;23.002;2023-02-22T01:21:04;97198.47;;;3.74;92.02
36630;BME280;36256;42.154;23.002;2023-02-22T01:23:30;97186.97;;;3.76;91.25
36630;BME280;36256;42.154;23.002;2023-02-22T01:25:57;97190.75;;;3.92;89.75
36630;BME280;36256;42.154;23.002;2023-02-22T01:28:24;97195.19;;;3.83;89.60
36630;BME280;36256;42.154;23.002;2023-02-22T01:30:50;97198.25;;;3.95;89.04
36630;BME280;36256;42.154;23.002;2023-02-22T01:33:18;97184.84;;;3.87;89.41
36630;BME280;36256;42.154;23.002;2023-02-22T01:35:44;97190.88;;;3.82;91.15
36630;BME280;36256;42.154;23.002;2023-02-22T01:38:11;97194.03;;;3.80;92.67
36630;BME280;36256;42.154;23.002;2023-02-22T01:40:41;97188.16;;;3.75;91.07
36630;BME280;36256;42.154;23.002;2023-02-22T01:43:26;97183.09;;;3.66;91.03
36630;BME280;36256;42.154;23.002;2023-02-22T01:48:29;97174.63;;;3.40;92.71
36630;BME280;36256;42.154;23.002;2023-02-22T01:51:15;97185.75;;;3.36;91.98
36630;BME280;36256;42.154;23.002;2023-02-22T01:53:50;97179.06;;;3.34;91.54
36630;BME280;36256;42.154;23.002;2023-02-22T01:56:22;97178.25;;;3.30;91.31
36630;BME280;36256;42.154;23.002;2023-02-22T01:59:09;97181.41;;;3.32;93.17
36630;BME280;36256;42.154;23.002;2023-02-22T02:01:37;97179.47;;;3.29;92.81
36630;BME280;36256;42.154;23.002;2023-02-22T02:04:18;97178.25;;;3.30;92.32
36630;BME280;36256;42.154;23.002;2023-02-22T02:06:46;97180.41;;;3.11;93.73
36630;BME280;36256;42.154;23.002;2023-02-22T02:09:17;97179.28;;;3.05;94.52
36630;BME280;36256;42.154;23.002;2023-02-22T02:11:45;97169.06;;;2.92;94.80
36630;BME280;36256;42.154;23.002;2023-02-22T02:14:13;97182.84;;;3.06;94.49
36630;BME280;36256;42.154;23.002;2023-02-22T02:16:43;97190.41;;;2.98;93.53
36630;BME280;36256;42.154;23.002;2023-02-22T02:30:54;97184.91;;;2.95;95.75
36630;BME280;36256;42.154;23.002;2023-02-22T02:33:30;97188.78;;;3.04;93.83
36630;BME280;36256;42.154;23.002;2023-02-22T02:41:15;97174.59;;;2.95;93.49
36630;BME280;36256;42.154;23.002;2023-02-22T02:46:19;97184.69;;;3.19;89.70
36630;BME280;36256;42.154;23.002;2023-02-22T02:48:53;97188.22;;;3.24;89.79
36630;BME280;36256;42.154;23.002;2023-02-22T02:51:27;97190.19;;;3.27;91.28
36630;BME280;36256;42.154;23.002;2023-02-22T02:53:54;97186.22;;;3.28;90.74
36630;BME280;36256;42.154;23.002;2023-02-22T02:56:21;97181.13;;;3.23;91.12
36630;BME280;36256;42.154;23.002;2023-02-22T02:58:52;97194.16;;;3.26;93.11
36630;BME280;36256;42.154;23.002;2023-02-22T03:03:58;97192.81;;;2.93;90.94
36630;BME280;36256;42.154;23.002;2023-02-22T03:15:12;97200.72;;;2.94;91.32
36630;BME280;36256;42.154;23.002;2023-02-22T03:17:49;97190.97;;;2.76;91.42
36630;BME280;36256;42.154;23.002;2023-02-22T03:23:42;97202.34;;;2.88;93.68
36630;BME280;36256;42.154;23.002;2023-02-22T03:26:10;97213.38;;;2.99;91.13
36630;BME280;36256;42.154;23.002;2023-02-22T03:28:40;97210.28;;;2.86;91.44
36630;BME280;36256;42.154;23.002;2023-02-22T03:31:21;97215.13;;;2.68;92.37
36630;BME280;36256;42.154;23.002;2023-02-22T03:33:55;97200.19;;;2.55;92.49
36630;BME280;36256;42.154;23.002;2023-02-22T03:36:31;97221.09;;;2.63;92.89
36630;BME280;36256;42.154;23.002;2023-02-22T03:39:00;97219.94;;;2.61;92.26
36630;BME280;36256;42.154;23.002;2023-02-22T03:41:30;97218.31;;;2.67;92.41
36630;BME280;36256;42.154;23.002;2023-02-22T03:44:06;97231.06;;;2.50;92.58
36630;BME280;36256;42.154;23.002;2023-02-22T03:46:37;97221.19;;;2.49;94.33
36630;BME280;36256;42.154;23.002;2023-02-22T03:49:13;97219.97;;;2.50;93.43
36630;BME280;36256;42.154;23.002;2023-02-22T03:51:42;97227.81;;;2.62;92.20
36630;BME280;36256;42.154;23.002;2023-02-22T03:54:10;97227.81;;;2.69;90.75
36630;BME280;36256;42.154;23.002;2023-02-22T03:56:45;97225.41;;;2.71;90.12
36630;BME280;36256;42.154;23.002;2023-02-22T03:59:15;97225.41;;;2.71;90.52
36630;BME280;36256;42.154;23.002;2023-02-22T04:01:43;97224.56;;;2.81;91.45
36630;BME280;36256;42.154;23.002;2023-02-22T04:04:09;97226.91;;;2.86;88.98
36630;BME280;36256;42.154;23.002;2023-02-22T04:06:36;97223.75;;;2.84;88.42
36630;BME280;36256;42.154;23.002;2023-02-22T04:09:03;97227.00;;;2.72;89.03
36630;BME280;36256;42.154;23.002;2023-02-22T04:11:29;97223.09;;;2.56;92.35
36630;BME280;36256;42.154;23.002;2023-02-22T04:13:56;97234.69;;;2.40;94.11
36630;BME280;36256;42.154;23.002;2023-02-22T04:16:23;97237.47;;;2.33;95.50
36630;BME280;36256;42.154;23.002;2023-02-22T04:18:50;97231.97;;;2.22;96.21
36630;BME280;36256;42.154;23.002;2023-02-22T04:21:16;97235.91;;;2.25;96.86
36630;BME280;36256;42.154;23.002;2023-02-22T04:23:43;97222.53;;;2.13;97.51
36630;BME280;36256;42.154;23.002;2023-02-22T04:26:10;97230.78;;;2.23;96.75
36630;BME280;36256;42.154;23.002;2023-02-22T04:28:36;97230.41;;;2.18;96.25
36630;BME280;36256;42.154;23.002;2023-02-22T04:31:03;97228.41;;;2.25;95.22
36630;BME280;36256;42.154;23.002;2023-02-22T04:33:30;97243.03;;;2.26;95.45
36630;BME280;36256;42.154;23.002;2023-02-22T04:35:56;97233.94;;;2.25;96.51
36630;BME280;36256;42.154;23.002;2023-02-22T04:38:23;97233.16;;;2.25;95.87
36630;BME280;36256;42.154;23.002;2023-02-22T04:40:54;97237.84;;;2.35;92.73
36630;BME280;36256;42.154;23.002;2023-02-22T04:43:21;97235.91;;;2.25;91.79
36630;BME280;36256;42.154;23.002;2023-02-22T04:45:48;97231.19;;;2.18;92.66
36630;BME280;36256;42.154;23.002;2023-02-22T04:48:14;97243.00;;;2.33;93.18
36630;BME280;36256;42.154;23.002;2023-02-22T04:50:41;97246.19;;;2.28;94.22
36630;BME280;36256;42.154;23.002;2023-02-22T04:53:08;97254.06;;;2.33;92.92
36630;BME280;36256;42.154;23.002;2023-02-22T04:55:34;97247.03;;;2.14;92.39
36630;BME280;36256;42.154;23.002;2023-02-22T04:58:01;97247.78;;;2.22;92.07
36630;BME280;36256;42.154;23.002;2023-02-22T05:00:27;97243.00;;;2.33;91.09
36630;BME280;36256;42.154;23.002;2023-02-22T05:02:54;97237.50;;;2.26;90.46
36630;BME280;36256;42.154;23.002;2023-02-22T05:05:21;97246.59;;;2.23;90.47
36630;BME280;36256;42.154;23.002;2023-02-22T05:07:49;97261.28;;;2.06;91.34
36630;BME280;36256;42.154;23.002;2023-02-22T05:10:15;97260.88;;;2.07;93.82
36630;BME280;36256;42.154;23.002;2023-02-22T05:12:42;97262.03;;;2.17;93.76
36630;BME280;36256;42.154;23.002;2023-02-22T05:15:09;97262.81;;;2.28;92.40
36630;BME280;36256;42.154;23.002;2023-02-22T05:17:36;97271.13;;;2.14;93.36
36630;BME280;36256;42.154;23.002;2023-02-22T05:20:04;97254.97;;;2.09;93.01
36630;BME280;36256;42.154;23.002;2023-02-22T05:22:30;97260.50;;;2.09;91.90
36630;BME280;36256;42.154;23.002;2023-02-22T05:24:57;97263.28;;;1.95;91.38
36630;BME280;36256;42.154;23.002;2023-02-22T05:27:23;97259.75;;;1.77;93.06
36630;BME280;36256;42.154;23.002;2023-02-22T05:29:50;97265.28;;;1.84;94.48
36630;BME280;36256;42.154;23.002;2023-02-22T05:32:17;97270.81;;;1.77;95.71
36630;BME280;36256;42.154;23.002;2023-02-22T05:34:43;97276.78;;;1.65;96.07
36630;BME280;36256;42.154;23.002;2023-02-22T05:37:10;97277.94;;;1.71;96.42
36630;BME280;36256;42.154;23.002;2023-02-22T05:39:37;97275.53;;;1.80;96.64
36630;BME280;36256;42.154;23.002;2023-02-22T05:42:04;97282.66;;;1.84;95.86
36630;BME280;36256;42.154;23.002;2023-02-22T05:44:30;97286.59;;;1.90;95.03
36630;BME280;36256;42.154;23.002;2023-02-22T05:46:57;97289.78;;;1.89;95.03
36630;BME280;36256;42.154;23.002;2023-02-22T05:49:23;97292.94;;;1.80;95.86
36630;BME280;36256;42.154;23.002;2023-02-22T05:51:50;97290.19;;;1.70;95.82
36630;BME280;36256;42.154;23.002;2023-02-22T05:54:17;97292.56;;;1.60;96.62
36630;BME280;36256;42.154;23.002;2023-02-22T05:56:43;97292.56;;;1.60;96.84
36630;BME280;36256;42.154;23.002;2023-02-22T05:59:10;97288.59;;;1.65;97.44
36630;BME280;36256;42.154;23.002;2023-02-22T06:01:36;97296.50;;;1.70;97.50
36630;BME280;36256;42.154;23.002;2023-02-22T06:04:03;97297.69;;;1.69;97.15
36630;BME280;36256;42.154;23.002;2023-02-22T06:06:30;97297.69;;;1.73;97.50
36630;BME280;36256;42.154;23.002;2023-02-22T06:08:56;97300.06;;;1.78;98.46
36630;BME280;36256;42.154;23.002;2023-02-22T06:11:23;97302.00;;;1.95;98.81
36630;BME280;36256;42.154;23.002;2023-02-22T06:13:51;97311.88;;;2.10;97.64
36630;BME280;36256;42.154;23.002;2023-02-22T06:16:22;97311.84;;;2.20;96.06
36630;BME280;36256;42.154;23.002;2023-02-22T06:18:49;97306.66;;;2.40;95.20
36630;BME280;36256;42.154;23.002;2023-02-22T06:21:15;97311.59;;;2.87;93.18
36630;BME280;36256;42.154;23.002;2023-02-22T06:23:43;97309.78;;;3.36;89.58
36630;BME280;36256;42.154;23.002;2023-02-22T06:26:09;97305.81;;;3.84;87.57
36630;BME280;36256;42.154;23.002;2023-02-22T06:28:36;97305.75;;;4.32;84.12
36630;BME280;36256;42.154;23.002;2023-02-22T06:31:03;97295.84;;;4.65;81.68
36630;BME280;36256;42.154;23.002;2023-02-22T06:33:29;97298.34;;;4.90;80.56
36630;BME280;36256;42.154;23.002;2023-02-22T06:35:56;97296.19;;;5.01;79.68
36630;BME280;36256;42.154;23.002;2023-02-22T06:38:24;97297.03;;;5.28;78.26
36630;BME280;36256;42.154;23.002;2023-02-22T06:40:51;97293.59;;;5.70;76.08
36630;BME280;36256;42.154;23.002;2023-02-22T06:43:17;97281.53;;;6.03;74.41
36630;BME280;36256;42.154;23.002;2023-02-22T06:45:44;97280.78;;;6.22;72.38
36630;BME280;36256;42.154;23.002;2023-02-22T06:48:11;97278.00;;;6.42;71.20
36630;BME280;36256;42.154;23.002;2023-02-22T06:50:38;97270.81;;;6.64;69.35
36630;BME280;36256;42.154;23.002;2023-02-22T06:53:06;97270.53;;;6.98;67.89
36630;BME280;36256;42.154;23.002;2023-02-22T06:55:33;97262.88;;;7.18;67.39
36630;BME280;36256;42.154;23.002;2023-02-22T06:58:01;97267.69;;;7.53;66.51
36630;BME280;36256;42.154;23.002;2023-02-22T07:00:29;97261.13;;;7.92;64.17
36630;BME280;36256;42.154;23.002;2023-02-22T07:02:58;97262.75;;;8.22;62.66
36630;BME280;36256;42.154;23.002;2023-02-22T07:05:25;97253.50;;;8.41;61.33
36630;BME280;36256;42.154;23.002;2023-02-22T07:07:53;97261.09;;;8.69;60.85
36630;BME280;36256;42.154;23.002;2023-02-22T07:10:22;97253.38;;;8.73;60.70
36630;BME280;36256;42.154;23.002;2023-02-22T07:12:49;97234.13;;;8.34;61.05
36630;BME280;36256;42.154;23.002;2023-02-22T07:15:19;97242.13;;;8.48;61.39
36630;BME280;36256;42.154;23.002;2023-02-22T07:17:47;97253.19;;;8.51;61.18
36630;BME280;36256;42.154;23.002;2023-02-22T07:20:13;97255.47;;;9.10;59.94
36630;BME280;36256;42.154;23.002;2023-02-22T07:22:40;97249.69;;;9.42;58.99
36630;BME280;36256;42.154;23.002;2023-02-22T07:25:08;97239.50;;;9.48;58.57
36630;BME280;36256;42.154;23.002;2023-02-22T07:27:38;97239.28;;;9.43;58.72
36630;BME280;36256;42.154;23.002;2023-02-22T07:32:42;97231.56;;;10.32;56.31
36630;BME280;36256;42.154;23.002;2023-02-22T07:35:14;97223.09;;;10.44;55.22
36630;BME280;36256;42.154;23.002;2023-02-22T07:37:42;97212.38;;;10.52;54.68
36630;BME280;36256;42.154;23.002;2023-02-22T07:40:10;97219.19;;;10.85;53.57
36630;BME280;36256;42.154;23.002;2023-02-22T07:45:23;97207.88;;;10.97;52.51
36630;BME280;36256;42.154;23.002;2023-02-22T07:47:50;97212.53;;;10.91;52.52
36630;BME280;36256;42.154;23.002;2023-02-22T07:50:17;97209.75;;;11.00;52.91
36630;BME280;36256;42.154;23.002;2023-02-22T07:52:49;97210.75;;;11.07;53.54
36630;BME280;36256;42.154;23.002;2023-02-22T07:55:18;97209.47;;;11.29;53.19
36630;BME280;36256;42.154;23.002;2023-02-22T07:57:46;97197.75;;;11.31;52.88
36630;BME280;36256;42.154;23.002;2023-02-22T08:00:15;97204.44;;;11.64;52.49
36630;BME280;36256;42.154;23.002;2023-02-22T08:02:42;97203.13;;;11.38;53.01
36630;BME280;36256;42.154;23.002;2023-02-22T08:05:10;97187.84;;;11.48;53.20
36630;BME280;36256;42.154;23.002;2023-02-22T08:07:36;97193.97;;;11.95;51.72
36630;BME280;36256;42.154;23.002;2023-02-22T08:10:05;97217.28;;;12.32;50.61
36630;BME280;36256;42.154;23.002;2023-02-22T08:12:34;97219.00;;;12.66;49.91
36630;BME280;36256;42.154;23.002;2023-02-22T08:15:03;97220.88;;;13.05;48.92
36630;BME280;36256;42.154;23.002;2023-02-22T08:17:30;97212.38;;;13.32;47.82
36630;BME280;36256;42.154;23.002;2023-02-22T08:19:57;97213.13;;;13.74;47.02
36630;BME280;36256;42.154;23.002;2023-02-22T08:22:23;97211.06;;;14.07;46.02
36630;BME280;36256;42.154;23.002;2023-02-22T08:24:52;97211.97;;;14.13;45.97
36630;BME280;36256;42.154;23.002;2023-02-22T08:27:27;97202.47;;;14.26;45.13
36630;BME280;36256;42.154;23.002;2023-02-22T08:29:55;97201.00;;;14.63;44.36
36630;BME280;36256;42.154;23.002;2023-02-22T08:32:22;97181.25;;;14.92;43.82
36630;BME280;36256;42.154;23.002;2023-02-22T08:34:49;97190.53;;;15.22;43.35
36630;BME280;36256;42.154;23.002;2023-02-22T08:37:16;97186.72;;;15.39;42.69
36630;BME280;36256;42.154;23.002;2023-02-22T08:39:43;97190.13;;;15.73;41.65
36630;BME280;36256;42.154;23.002;2023-02-22T08:42:10;97177.31;;;16.32;41.28
36630;BME280;36256;42.154;23.002;2023-02-22T08:44:38;97190.63;;;16.86;39.74
36630;BME280;36256;42.154;23.002;2023-02-22T08:47:05;97201.91;;;17.06;39.40
36630;BME280;36256;42.154;23.002;2023-02-22T08:49:32;97214.06;;;17.64;38.19
36630;BME280;36256;42.154;23.002;2023-02-22T08:51:59;97221.91;;;18.11;37.92
36630;BME280;36256;42.154;23.002;2023-02-22T08:54:25;97218.00;;;18.03;37.18
36630;BME280;36256;42.154;23.002;2023-02-22T08:56:52;97220.44;;;18.21;37.10
36630;BME280;36256;42.154;23.002;2023-02-22T08:59:18;97215.22;;;19.32;35.69
36630;BME280;36256;42.154;23.002;2023-02-22T09:01:48;97208.56;;;19.57;35.54
36630;BME280;36256;42.154;23.002;2023-02-22T09:04:14;97204.41;;;19.80;34.32
36630;BME280;36256;42.154;23.002;2023-02-22T09:06:41;97212.16;;;20.29;33.74
36630;BME280;36256;42.154;23.002;2023-02-22T09:09:09;97205.66;;;20.40;33.35
36630;BME280;36256;42.154;23.002;2023-02-22T09:11:36;97203.59;;;21.09;33.01
36630;BME280;36256;42.154;23.002;2023-02-22T09:14:02;97198.47;;;22.80;30.50
36630;BME280;36256;42.154;23.002;2023-02-22T09:16:29;97211.66;;;22.40;30.75
36630;BME280;36256;42.154;23.002;2023-02-22T09:18:56;97196.78;;;23.09;29.59
36630;BME280;36256;42.154;23.002;2023-02-22T09:21:22;97196.38;;;23.42;29.49
36630;BME280;36256;42.154;23.002;2023-02-22T09:23:49;97196.13;;;24.35;28.52
36630;BME280;36256;42.154;23.002;2023-02-22T09:26:16;97187.44;;;23.08;29.59
36630;BME280;36256;42.154;23.002;2023-02-22T09:28:42;97187.50;;;24.22;28.92
36630;BME280;36256;42.154;23.002;2023-02-22T09:31:09;97186.91;;;24.81;27.38
36630;BME280;36256;42.154;23.002;2023-02-22T09:33:35;97187.09;;;24.70;28.01
36630;BME280;36256;42.154;23.002;2023-02-22T09:36:02;97178.69;;;24.20;28.52
36630;BME280;36256;42.154;23.002;2023-02-22T09:38:29;97179.81;;;24.43;27.67
36630;BME280;36256;42.154;23.002;2023-02-22T09:41:19;97171.41;;;24.58;27.66
36630;BME280;36256;42.154;23.002;2023-02-22T09:44:14;97169.38;;;23.69;28.88
36630;BME280;36256;42.154;23.002;2023-02-22T09:46:44;97162.66;;;21.71;31.20
36630;BME280;36256;42.154;23.002;2023-02-22T09:49:55;97151.94;;;20.61;33.13
36630;BME280;36256;42.154;23.002;2023-02-22T09:52:27;97146.72;;;19.46;34.61
36630;BME280;36256;42.154;23.002;2023-02-22T09:55:27;97132.69;;;19.04;35.51
36630;BME280;36256;42.154;23.002;2023-02-22T09:57:58;97134.34;;;18.46;35.56
36630;BME280;36256;42.154;23.002;2023-02-22T10:00:30;97128.00;;;18.20;37.06
36630;BME280;36256;42.154;23.002;2023-02-22T10:05:46;97125.03;;;17.56;37.59
36630;BME280;36256;42.154;23.002;2023-02-22T10:08:17;97119.34;;;17.56;38.31
36630;BME280;36256;42.154;23.002;2023-02-22T10:10:45;97115.50;;;17.27;38.55
36630;BME280;36256;42.154;23.002;2023-02-22T10:13:24;97118.47;;;17.44;37.60
36630;BME280;36256;42.154;23.002;2023-02-22T10:16:35;97099.75;;;17.58;37.53
36630;BME280;36256;42.154;23.002;2023-02-22T10:27:17;97078.00;;;17.49;37.88
36630;BME280;36256;42.154;23.002;2023-02-22T10:33:12;97063.69;;;17.64;38.41
36630;BME280;36256;42.154;23.002;2023-02-22T10:35:42;97056.53;;;17.74;37.42
36630;BME280;36256;42.154;23.002;2023-02-22T10:40:52;97039.72;;;18.29;37.96
36630;BME280;36256;42.154;23.002;2023-02-22T10:43:21;97030.94;;;18.16;36.09
36630;BME280;36256;42.154;23.002;2023-02-22T10:45:51;97025.94;;;18.00;36.81
36630;BME280;36256;42.154;23.002;2023-02-22T10:48:23;97014.38;;;18.09;36.31
36630;BME280;36256;42.154;23.002;2023-02-22T10:50:53;97015.47;;;18.28;39.20
36630;BME280;36256;42.154;23.002;2023-02-22T10:53:25;97001.59;;;18.58;38.92
36630;BME280;36256;42.154;23.002;2023-02-22T10:56:20;96999.53;;;18.58;36.97
36630;BME280;36256;42.154;23.002;2023-02-22T11:01:32;96990.25;;;18.74;36.68
36630;BME280;36256;42.154;23.002;2023-02-22T11:04:09;96969.56;;;18.91;36.48
36630;BME280;36256;42.154;23.002;2023-02-22T11:06:38;96983.75;;;19.18;35.68
36630;BME280;36256;42.154;23.002;2023-02-22T11:11:36;96968.50;;;19.16;36.65
36630;BME280;36256;42.154;23.002;2023-02-22T11:14:03;96959.69;;;19.25;35.34
36630;BME280;36256;42.154;23.002;2023-02-22T11:16:38;96958.94;;;19.35;36.01
36630;BME280;36256;42.154;23.002;2023-02-22T11:21:41;96958.28;;;19.76;36.38
36630;BME280;36256;42.154;23.002;2023-02-22T11:24:12;96952.47;;;20.03;34.55
36630;BME280;36256;42.154;23.002;2023-02-22T11:26:42;96940.28;;;20.08;35.22
36630;BME280;36256;42.154;23.002;2023-02-22T11:29:30;96938.97;;;20.09;34.12
36630;BME280;36256;42.154;23.002;2023-02-22T11:32:01;96922.47;;;19.97;35.28
36630;BME280;36256;42.154;23.002;2023-02-22T11:39:41;96926.09;;;20.44;34.07
36630;BME280;36256;42.154;23.002;2023-02-22T11:42:23;96929.91;;;20.52;33.82
36630;BME280;36256;42.154;23.002;2023-02-22T11:45:41;96919.91;;;20.40;33.72
36630;BME280;36256;42.154;23.002;2023-02-22T11:48:01;96910.31;;;20.37;33.69
36630;BME280;36256;42.154;23.002;2023-02-22T11:56:19;96906.94;;;20.74;32.35
36630;BME280;36256;42.154;23.002;2023-02-22T11:59:24;96907.03;;;20.87;33.09
36630;BME280;36256;42.154;23.002;2023-02-22T12:05:17;96897.00;;;21.10;32.65
36630;BME280;36256;42.154;23.002;2023-02-22T12:08:23;96899.59;;;21.08;31.97
36630;BME280;36256;42.154;23.002;2023-02-22T12:11:14;96899.09;;;21.09;32.26
36630;BME280;36256;42.154;23.002;2023-02-22T12:19:39;96882.25;;;21.06;30.06
36630;BME280;36256;42.154;23.002;2023-02-22T12:22:29;96875.16;;;21.18;30.97
36630;BME280;36256;42.154;23.002;2023-02-22T12:27:53;96873.28;;;21.21;30.26
36630;BME280;36256;42.154;23.002;2023-02-22T12:30:28;96868.22;;;21.32;30.37
36630;BME280;36256;42.154;23.002;2023-02-22T12:33:02;96862.41;;;21.43;30.15
36630;BME280;36256;42.154;23.002;2023-02-22T12:35:38;96871.03;;;21.56;31.92
36630;BME280;36256;42.154;23.002;2023-02-22T12:41:41;96858.31;;;21.57;30.54
36630;BME280;36256;42.154;23.002;2023-02-22T12:43:52;96860.09;;;21.60;31.33
36630;BME280;36256;42.154;23.002;2023-02-22T12:46:27;96853.22;;;21.50;29.71
36630;BME280;36256;42.154;23.002;2023-02-22T12:54:30;96849.75;;;21.57;29.44
36630;BME280;36256;42.154;23.002;2023-02-22T12:59:52;96844.84;;;21.34;30.22
36630;BME280;36256;42.154;23.002;2023-02-22T13:02:31;96846.47;;;21.29;31.20
36630;BME280;36256;42.154;23.002;2023-02-22T13:05:01;96846.63;;;21.18;29.82
36630;BME280;36256;42.154;23.002;2023-02-22T13:07:44;96838.75;;;21.24;29.50
36630;BME280;36256;42.154;23.002;2023-02-22T13:10:44;96844.75;;;21.21;32.71
36630;BME280;36256;42.154;23.002;2023-02-22T13:13:32;96841.00;;;21.31;31.23
36630;BME280;36256;42.154;23.002;2023-02-22T13:16:10;96846.00;;;21.25;31.43
36630;BME280;36256;42.154;23.002;2023-02-22T13:18:59;96848.03;;;21.30;30.62
36630;BME280;36256;42.154;23.002;2023-02-22T13:24:23;96837.97;;;21.24;30.42
36630;BME280;36256;42.154;23.002;2023-02-22T13:27:07;96826.78;;;21.01;30.85
36630;BME280;36256;42.154;23.002;2023-02-22T13:29:41;96823.34;;;20.84;32.54
36630;BME280;36256;42.154;23.002;2023-02-22T13:35:18;96837.06;;;20.86;32.65
36630;BME280;36256;42.154;23.002;2023-02-22T13:38:01;96832.66;;;20.85;30.62
36630;BME280;36256;42.154;23.002;2023-02-22T13:46:36;96825.50;;;21.02;30.79
36630;BME280;36256;42.154;23.002;2023-02-22T13:52:15;96817.44;;;21.06;31.10
36630;BME280;36256;42.154;23.002;2023-02-22T13:54:52;96820.03;;;21.04;32.49
36630;BME280;36256;42.154;23.002;2023-02-22T14:00:22;96821.50;;;20.87;32.62
36630;BME280;36256;42.154;23.002;2023-02-22T14:16:30;96814.94;;;20.68;33.02
36630;BME280;36256;42.154;23.002;2023-02-22T14:19:17;96808.94;;;20.47;32.96
36630;BME280;36256;42.154;23.002;2023-02-22T14:21:56;96813.13;;;20.41;32.54
36630;BME280;36256;42.154;23.002;2023-02-22T14:24:29;96811.50;;;20.51;33.10
36630;BME280;36256;42.154;23.002;2023-02-22T14:27:08;96807.78;;;20.31;33.54
36630;BME280;36256;42.154;23.002;2023-02-22T14:29:36;96807.25;;;20.33;32.24
36630;BME280;36256;42.154;23.002;2023-02-22T14:32:11;96810.72;;;20.50;31.57
36630;BME280;36256;42.154;23.002;2023-02-22T14:34:42;96810.44;;;20.54;31.33
36630;BME280;36256;42.154;23.002;2023-02-22T14:37:24;96804.16;;;20.61;31.84
36630;BME280;36256;42.154;23.002;2023-02-22T14:40:01;96801.25;;;20.66;32.06
36630;BME280;36256;42.154;23.002;2023-02-22T14:42:42;96799.50;;;20.58;32.87
36630;BME280;36256;42.154;23.002;2023-02-22T14:45:22;96799.50;;;20.58;33.58
36630;BME280;36256;42.154;23.002;2023-02-22T14:48:23;96802.13;;;20.56;33.78
36630;BME280;36256;42.154;23.002;2023-02-22T14:51:01;96793.91;;;20.47;33.98
36630;BME280;36256;42.154;23.002;2023-02-22T14:53:49;96797.88;;;20.38;31.65
36630;BME280;36256;42.154;23.002;2023-02-22T14:56:39;96804.25;;;20.50;33.58
36630;BME280;36256;42.154;23.002;2023-02-22T14:59:21;96802.34;;;20.33;34.13
36630;BME280;36256;42.154;23.002;2023-02-22T15:02:04;96799.16;;;20.07;34.44
36630;BME280;36256;42.154;23.002;2023-02-22T15:04:37;96801.41;;;19.79;34.52
36630;BME280;36256;42.154;23.002;2023-02-22T15:07:18;96794.66;;;19.47;34.56
36630;BME280;36256;42.154;23.002;2023-02-22T15:09:45;96799.63;;;19.30;34.85
36630;BME280;36256;42.154;23.002;2023-02-22T15:12:25;96787.66;;;18.79;35.93
36630;BME280;36256;42.154;23.002;2023-02-22T15:15:17;96794.41;;;18.38;36.93
36630;BME280;36256;42.154;23.002;2023-02-22T15:17:52;96791.34;;;17.86;37.55
36630;BME280;36256;42.154;23.002;2023-02-22T15:20:20;96775.34;;;17.72;37.77
36630;BME280;36256;42.154;23.002;2023-02-22T15:22:49;96787.72;;;17.69;36.95
36630;BME280;36256;42.154;23.002;2023-02-22T15:25:23;96801.91;;;17.74;37.52
36630;BME280;36256;42.154;23.002;2023-02-22T15:27:51;96793.66;;;17.65;38.67
36630;BME280;36256;42.154;23.002;2023-02-22T15:30:26;96795.09;;;17.39;39.48